sensor_id;sensor_type;location;lat;lon;timestamp;P1;durP1;ratioP1;P2;durP2;ratioP2
3549;SDS011;45572;48.804;8.330;2023-07-02T00:02:24;8.30;;;5.00;;
3549;SDS011;45572;48.804;8.330;2023-07-02T00:04:52;10.53;;;6.13;;
3549;SDS011;45572;48.804;8.330;2023-07-02T00:07:20;8.63;;;5.93;;
3549;SDS011;45572;48.804;8.330;2023-07-02T00:09:48;7.53;;;5.37;;
3549;SDS011;45572;48.804;8.330;2023-07-02T00:12:17;8.57;;;5.00;;
3549;SDS011;45572;48.804;8.330;2023-07-02T00:14:45;6.03;;;5.03;;
3549;SDS011;45572;48.804;8.330;2023-07-02T00:17:13;8.10;;;5.57;;
3549;SDS011;45572;48.804;8.330;2023-07-02T00:19:41;8.50;;;5.77;;
3549;SDS011;45572;48.804;8.330;2023-07-02T00:22:09;6.37;;;5.40;;
3549;SDS011;45572;48.804;8.330;2023-07-02T00:24:38;8.00;;;5.70;;
3549;SDS011;45572;48.804;8.330;2023-07-02T00:27:06;6.20;;;5.37;;
3549;SDS011;45572;48.804;8.330;2023-07-02T00:29:35;8.03;;;6.07;;
3549;SDS011;45572;48.804;8.330;2023-07-02T00:32:03;11.77;;;5.83;;
3549;SDS011;45572;48.804;8.330;2023-07-02T00:34:31;11.23;;;5.30;;
3549;SDS011;45572;48.804;8.330;2023-07-02T00:36:59;8.27;;;5.87;;
3549;SDS011;45572;48.804;8.330;2023-07-02T00:39:28;6.70;;;5.23;;
3549;SDS011;45572;48.804;8.330;2023-07-02T00:41:59;6.87;;;5.13;;
3549;SDS011;45572;48.804;8.330;2023-07-02T00:44:28;9.67;;;5.83;;
3549;SDS011;45572;48.804;8.330;2023-07-02T00:46:57;7.40;;;5.13;;
3549;SDS011;45572;48.804;8.330;2023-07-02T00:49:25;7.30;;;5.47;;
3549;SDS011;45572;48.804;8.330;2023-07-02T00:51:54;9.07;;;5.00;;
3549;SDS011;45572;48.804;8.330;2023-07-02T00:54:22;7.20;;;5.77;;
3549;SDS011;45572;48.804;8.330;2023-07-02T00:56:50;6.90;;;5.60;;
3549;SDS011;45572;48.804;8.330;2023-07-02T00:59:18;6.43;;;5.20;;
3549;SDS011;45572;48.804;8.330;2023-07-02T01:01:45;7.30;;;4.77;;
3549;SDS011;45572;48.804;8.330;2023-07-02T01:04:20;6.20;;;5.47;;
3549;SDS011;45572;48.804;8.330;2023-07-02T01:06:55;6.87;;;5.60;;
3549;SDS011;45572;48.804;8.330;2023-07-02T01:09:24;4.83;;;4.27;;
3549;SDS011;45572;48.804;8.330;2023-07-02T01:11:53;4.90;;;4.20;;
3549;SDS011;45572;48.804;8.330;2023-07-02T01:14:24;5.90;;;5.30;;
3549;SDS011;45572;48.804;8.330;2023-07-02T01:16:54;5.77;;;4.70;;
3549;SDS011;45572;48.804;8.330;2023-07-02T01:19:30;9.20;;;4.93;;
3549;SDS011;45572;48.804;8.330;2023-07-02T01:22:06;5.50;;;4.80;;
3549;SDS011;45572;48.804;8.330;2023-07-02T01:24:35;7.87;;;5.73;;
3549;SDS011;45572;48.804;8.330;2023-07-02T01:27:03;6.30;;;4.80;;
3549;SDS011;45572;48.804;8.330;2023-07-02T01:29:31;6.50;;;4.63;;
3549;SDS011;45572;48.804;8.330;2023-07-02T01:32:02;7.40;;;4.63;;
3549;SDS011;45572;48.804;8.330;2023-07-02T01:34:32;6.70;;;4.80;;
3549;SDS011;45572;48.804;8.330;2023-07-02T01:37:00;6.50;;;4.70;;
3549;SDS011;45572;48.804;8.330;2023-07-02T01:39:28;7.23;;;4.83;;
3549;SDS011;45572;48.804;8.330;2023-07-02T01:42:06;5.37;;;4.80;;
3549;SDS011;45572;48.804;8.330;2023-07-02T01:44:35;7.40;;;4.63;;
3549;SDS011;45572;48.804;8.330;2023-07-02T01:47:04;9.80;;;4.83;;
3549;SDS011;45572;48.804;8.330;2023-07-02T01:49:33;6.30;;;4.93;;
3549;SDS011;45572;48.804;8.330;2023-07-02T01:52:02;7.80;;;5.27;;
3549;SDS011;45572;48.804;8.330;2023-07-02T01:54:31;7.50;;;5.33;;
3549;SDS011;45572;48.804;8.330;2023-07-02T01:56:59;7.67;;;5.00;;
3549;SDS011;45572;48.804;8.330;2023-07-02T01:59:27;7.63;;;4.73;;
3549;SDS011;45572;48.804;8.330;2023-07-02T02:01:55;9.33;;;4.87;;
3549;SDS011;45572;48.804;8.330;2023-07-02T02:04:23;8.53;;;4.73;;
3549;SDS011;45572;48.804;8.330;2023-07-02T02:06:53;5.80;;;4.50;;
3549;SDS011;45572;48.804;8.330;2023-07-02T02:09:21;5.47;;;3.90;;
3549;SDS011;45572;48.804;8.330;2023-07-02T02:11:49;11.40;;;4.63;;
3549;SDS011;45572;48.804;8.330;2023-07-02T02:14:18;8.13;;;4.10;;
3549;SDS011;45572;48.804;8.330;2023-07-02T02:16:48;15.53;;;4.20;;
3549;SDS011;45572;48.804;8.330;2023-07-02T02:19:16;6.50;;;4.30;;
3549;SDS011;45572;48.804;8.330;2023-07-02T02:21:43;6.70;;;4.27;;
3549;SDS011;45572;48.804;8.330;2023-07-02T02:24:14;7.60;;;4.73;;
3549;SDS011;45572;48.804;8.330;2023-07-02T02:26:41;6.40;;;3.77;;
3549;SDS011;45572;48.804;8.330;2023-07-02T02:29:09;5.10;;;4.60;;
3549;SDS011;45572;48.804;8.330;2023-07-02T02:31:37;8.50;;;4.30;;
3549;SDS011;45572;48.804;8.330;2023-07-02T02:34:05;8.23;;;4.57;;
3549;SDS011;45572;48.804;8.330;2023-07-02T02:36:33;5.57;;;4.60;;
3549;SDS011;45572;48.804;8.330;2023-07-02T02:39:01;8.80;;;5.17;;
3549;SDS011;45572;48.804;8.330;2023-07-02T02:41:31;7.23;;;4.83;;
3549;SDS011;45572;48.804;8.330;2023-07-02T02:43:59;6.50;;;4.87;;
3549;SDS011;45572;48.804;8.330;2023-07-02T02:46:27;7.10;;;5.13;;
3549;SDS011;45572;48.804;8.330;2023-07-02T02:48:54;7.53;;;4.80;;
3549;SDS011;45572;48.804;8.330;2023-07-02T02:51:22;8.33;;;4.03;;
3549;SDS011;45572;48.804;8.330;2023-07-02T02:53:50;6.17;;;4.13;;
3549;SDS011;45572;48.804;8.330;2023-07-02T02:56:18;6.90;;;4.20;;
3549;SDS011;45572;48.804;8.330;2023-07-02T02:58:47;6.90;;;5.43;;
3549;SDS011;45572;48.804;8.330;2023-07-02T03:01:14;8.00;;;4.50;;
3549;SDS011;45572;48.804;8.330;2023-07-02T03:03:42;10.50;;;5.27;;
3549;SDS011;45572;48.804;8.330;2023-07-02T03:06:13;17.40;;;5.53;;
3549;SDS011;45572;48.804;8.330;2023-07-02T03:08:42;6.85;;;5.10;;
3549;SDS011;45572;48.804;8.330;2023-07-02T03:11:10;9.07;;;5.13;;
3549;SDS011;45572;48.804;8.330;2023-07-02T03:13:37;9.13;;;5.10;;
3549;SDS011;45572;48.804;8.330;2023-07-02T03:16:07;8.32;;;4.50;;
3549;SDS011;45572;48.804;8.330;2023-07-02T03:18:35;6.82;;;5.13;;
3549;SDS011;45572;48.804;8.330;2023-07-02T03:21:02;16.83;;;6.47;;
3549;SDS011;45572;48.804;8.330;2023-07-02T03:23:30;7.55;;;5.10;;
3549;SDS011;45572;48.804;8.330;2023-07-02T03:25:58;11.23;;;6.35;;
3549;SDS011;45572;48.804;8.330;2023-07-02T03:28:26;7.78;;;5.35;;
3549;SDS011;45572;48.804;8.330;2023-07-02T03:30:53;7.90;;;5.28;;
3549;SDS011;45572;48.804;8.330;2023-07-02T03:33:23;9.48;;;4.82;;
3549;SDS011;45572;48.804;8.330;2023-07-02T03:35:50;14.27;;;6.60;;
3549;SDS011;45572;48.804;8.330;2023-07-02T03:38:18;7.78;;;5.72;;
3549;SDS011;45572;48.804;8.330;2023-07-02T03:40:46;14.18;;;5.50;;
3549;SDS011;45572;48.804;8.330;2023-07-02T03:43:14;8.88;;;6.95;;
3549;SDS011;45572;48.804;8.330;2023-07-02T03:45:42;9.38;;;5.68;;
3549;SDS011;45572;48.804;8.330;2023-07-02T03:48:10;9.63;;;6.05;;
3549;SDS011;45572;48.804;8.330;2023-07-02T03:50:39;8.25;;;5.72;;
3549;SDS011;45572;48.804;8.330;2023-07-02T03:53:07;10.25;;;5.95;;
3549;SDS011;45572;48.804;8.330;2023-07-02T03:55:35;9.90;;;5.53;;
3549;SDS011;45572;48.804;8.330;2023-07-02T03:58:05;10.93;;;5.25;;
3549;SDS011;45572;48.804;8.330;2023-07-02T04:00:32;12.48;;;6.07;;
3549;SDS011;45572;48.804;8.330;2023-07-02T04:03:00;8.93;;;5.80;;
3549;SDS011;45572;48.804;8.330;2023-07-02T04:05:29;10.35;;;5.53;;
3549;SDS011;45572;48.804;8.330;2023-07-02T04:08:01;7.40;;;5.53;;
3549;SDS011;45572;48.804;8.330;2023-07-02T04:10:29;10.00;;;5.78;;
3549;SDS011;45572;48.804;8.330;2023-07-02T04:12:57;8.73;;;5.70;;
3549;SDS011;45572;48.804;8.330;2023-07-02T04:15:24;9.60;;;5.17;;
3549;SDS011;45572;48.804;8.330;2023-07-02T04:17:52;7.87;;;5.10;;
3549;SDS011;45572;48.804;8.330;2023-07-02T04:20:20;13.13;;;5.07;;
3549;SDS011;45572;48.804;8.330;2023-07-02T04:22:48;9.53;;;5.83;;
3549;SDS011;45572;48.804;8.330;2023-07-02T04:25:17;12.70;;;5.40;;
3549;SDS011;45572;48.804;8.330;2023-07-02T04:28:06;6.83;;;4.80;;
3549;SDS011;45572;48.804;8.330;2023-07-02T04:30:33;9.47;;;5.37;;
3549;SDS011;45572;48.804;8.330;2023-07-02T04:33:01;15.27;;;6.57;;
3549;SDS011;45572;48.804;8.330;2023-07-02T04:35:29;12.87;;;5.73;;
3549;SDS011;45572;48.804;8.330;2023-07-02T04:37:57;9.60;;;5.90;;
3549;SDS011;45572;48.804;8.330;2023-07-02T04:40:26;10.37;;;5.90;;
3549;SDS011;45572;48.804;8.330;2023-07-02T04:42:54;12.63;;;6.37;;
3549;SDS011;45572;48.804;8.330;2023-07-02T04:45:25;10.00;;;6.37;;
3549;SDS011;45572;48.804;8.330;2023-07-02T04:47:58;12.33;;;5.97;;
3549;SDS011;45572;48.804;8.330;2023-07-02T04:50:27;11.63;;;5.10;;
3549;SDS011;45572;48.804;8.330;2023-07-02T04:52:55;11.47;;;5.60;;
3549;SDS011;45572;48.804;8.330;2023-07-02T04:55:22;14.13;;;5.07;;
3549;SDS011;45572;48.804;8.330;2023-07-02T04:57:51;6.13;;;5.00;;
3549;SDS011;45572;48.804;8.330;2023-07-02T05:00:19;7.70;;;5.27;;
3549;SDS011;45572;48.804;8.330;2023-07-02T05:02:48;8.10;;;5.33;;
3549;SDS011;45572;48.804;8.330;2023-07-02T05:05:16;10.77;;;4.60;;
3549;SDS011;45572;48.804;8.330;2023-07-02T05:07:44;7.63;;;4.60;;
3549;SDS011;45572;48.804;8.330;2023-07-02T05:10:12;8.40;;;4.53;;
3549;SDS011;45572;48.804;8.330;2023-07-02T05:12:40;7.67;;;5.13;;
3549;SDS011;45572;48.804;8.330;2023-07-02T05:15:09;10.10;;;4.93;;
3549;SDS011;45572;48.804;8.330;2023-07-02T05:17:40;12.80;;;6.27;;
3549;SDS011;45572;48.804;8.330;2023-07-02T05:20:08;7.70;;;5.30;;
3549;SDS011;45572;48.804;8.330;2023-07-02T05:22:36;8.70;;;5.20;;
3549;SDS011;45572;48.804;8.330;2023-07-02T05:25:04;12.00;;;4.93;;
3549;SDS011;45572;48.804;8.330;2023-07-02T05:27:32;8.90;;;5.50;;
3549;SDS011;45572;48.804;8.330;2023-07-02T05:30:02;8.23;;;5.50;;
3549;SDS011;45572;48.804;8.330;2023-07-02T05:32:33;11.03;;;5.43;;
3549;SDS011;45572;48.804;8.330;2023-07-02T05:35:01;25.73;;;6.37;;
3549;SDS011;45572;48.804;8.330;2023-07-02T05:37:29;5.27;;;4.40;;
3549;SDS011;45572;48.804;8.330;2023-07-02T05:39:57;11.83;;;5.40;;
3549;SDS011;45572;48.804;8.330;2023-07-02T05:42:25;9.40;;;5.00;;
3549;SDS011;45572;48.804;8.330;2023-07-02T05:44:52;15.77;;;6.37;;
3549;SDS011;45572;48.804;8.330;2023-07-02T05:47:20;6.67;;;4.00;;
3549;SDS011;45572;48.804;8.330;2023-07-02T05:49:49;9.60;;;5.20;;
3549;SDS011;45572;48.804;8.330;2023-07-02T05:52:17;13.80;;;5.60;;
3549;SDS011;45572;48.804;8.330;2023-07-02T05:54:45;10.03;;;5.30;;
3549;SDS011;45572;48.804;8.330;2023-07-02T05:57:13;10.83;;;6.43;;
3549;SDS011;45572;48.804;8.330;2023-07-02T05:59:41;14.00;;;7.33;;
3549;SDS011;45572;48.804;8.330;2023-07-02T06:02:08;13.43;;;7.43;;
3549;SDS011;45572;48.804;8.330;2023-07-02T06:04:36;12.90;;;7.57;;
3549;SDS011;45572;48.804;8.330;2023-07-02T06:07:08;15.43;;;7.10;;
3549;SDS011;45572;48.804;8.330;2023-07-02T06:09:36;11.07;;;6.67;;
3549;SDS011;45572;48.804;8.330;2023-07-02T06:12:03;14.00;;;6.57;;
3549;SDS011;45572;48.804;8.330;2023-07-02T06:14:31;16.57;;;7.90;;
3549;SDS011;45572;48.804;8.330;2023-07-02T06:16:59;16.90;;;7.27;;
3549;SDS011;45572;48.804;8.330;2023-07-02T06:19:27;13.97;;;7.03;;
3549;SDS011;45572;48.804;8.330;2023-07-02T06:21:55;10.17;;;7.00;;
3549;SDS011;45572;48.804;8.330;2023-07-02T06:24:24;16.33;;;7.63;;
3549;SDS011;45572;48.804;8.330;2023-07-02T06:26:52;18.20;;;7.77;;
3549;SDS011;45572;48.804;8.330;2023-07-02T06:29:21;14.23;;;7.83;;
3549;SDS011;45572;48.804;8.330;2023-07-02T06:31:50;13.50;;;8.30;;
3549;SDS011;45572;48.804;8.330;2023-07-02T06:34:18;15.57;;;7.80;;
3549;SDS011;45572;48.804;8.330;2023-07-02T06:36:45;17.40;;;8.83;;
3549;SDS011;45572;48.804;8.330;2023-07-02T06:39:13;13.43;;;8.27;;
3549;SDS011;45572;48.804;8.330;2023-07-02T06:41:43;17.33;;;8.53;;
3549;SDS011;45572;48.804;8.330;2023-07-02T06:44:11;14.80;;;9.03;;
3549;SDS011;45572;48.804;8.330;2023-07-02T06:46:39;11.47;;;6.83;;
3549;SDS011;45572;48.804;8.330;2023-07-02T06:49:07;15.90;;;8.47;;
3549;SDS011;45572;48.804;8.330;2023-07-02T06:51:35;16.10;;;7.90;;
3549;SDS011;45572;48.804;8.330;2023-07-02T06:54:02;20.00;;;8.60;;
3549;SDS011;45572;48.804;8.330;2023-07-02T06:56:30;16.20;;;9.03;;
3549;SDS011;45572;48.804;8.330;2023-07-02T06:59:01;16.80;;;8.17;;
3549;SDS011;45572;48.804;8.330;2023-07-02T07:01:29;21.40;;;9.13;;
3549;SDS011;45572;48.804;8.330;2023-07-02T07:03:57;16.67;;;9.33;;
3549;SDS011;45572;48.804;8.330;2023-07-02T07:06:26;14.93;;;9.23;;
3549;SDS011;45572;48.804;8.330;2023-07-02T07:08:53;13.73;;;8.70;;
3549;SDS011;45572;48.804;8.330;2023-07-02T07:11:21;17.57;;;8.30;;
3549;SDS011;45572;48.804;8.330;2023-07-02T07:13:49;15.40;;;9.10;;
3549;SDS011;45572;48.804;8.330;2023-07-02T07:16:18;14.87;;;8.33;;
3549;SDS011;45572;48.804;8.330;2023-07-02T07:18:48;18.33;;;8.70;;
3549;SDS011;45572;48.804;8.330;2023-07-02T07:21:17;17.67;;;8.90;;
3549;SDS011;45572;48.804;8.330;2023-07-02T07:23:46;16.13;;;9.00;;
3549;SDS011;45572;48.804;8.330;2023-07-02T07:26:14;19.53;;;10.53;;
3549;SDS011;45572;48.804;8.330;2023-07-02T07:28:42;12.50;;;8.63;;
3549;SDS011;45572;48.804;8.330;2023-07-02T07:31:09;18.90;;;11.10;;
3549;SDS011;45572;48.804;8.330;2023-07-02T07:33:39;18.13;;;9.87;;
3549;SDS011;45572;48.804;8.330;2023-07-02T07:36:06;16.07;;;9.33;;
3549;SDS011;45572;48.804;8.330;2023-07-02T07:38:34;16.77;;;10.40;;
3549;SDS011;45572;48.804;8.330;2023-07-02T07:41:02;20.43;;;10.80;;
3549;SDS011;45572;48.804;8.330;2023-07-02T07:43:31;18.57;;;11.63;;
3549;SDS011;45572;48.804;8.330;2023-07-02T07:46:00;22.63;;;11.90;;
3549;SDS011;45572;48.804;8.330;2023-07-02T07:48:28;17.40;;;11.63;;
3549;SDS011;45572;48.804;8.330;2023-07-02T07:50:57;18.73;;;12.23;;
3549;SDS011;45572;48.804;8.330;2023-07-02T07:53:27;22.30;;;13.70;;
3549;SDS011;45572;48.804;8.330;2023-07-02T07:55:56;24.40;;;12.27;;
3549;SDS011;45572;48.804;8.330;2023-07-02T07:58:24;18.80;;;12.53;;
3549;SDS011;45572;48.804;8.330;2023-07-02T08:00:51;20.07;;;12.40;;
3549;SDS011;45572;48.804;8.330;2023-07-02T08:03:19;26.33;;;14.87;;
3549;SDS011;45572;48.804;8.330;2023-07-02T08:05:47;27.80;;;16.10;;
3549;SDS011;45572;48.804;8.330;2023-07-02T08:08:16;24.80;;;16.57;;
3549;SDS011;45572;48.804;8.330;2023-07-02T08:10:44;30.23;;;16.90;;
3549;SDS011;45572;48.804;8.330;2023-07-02T08:13:13;23.80;;;15.00;;
3549;SDS011;45572;48.804;8.330;2023-07-02T08:15:41;30.07;;;17.70;;
3549;SDS011;45572;48.804;8.330;2023-07-02T08:18:08;31.90;;;17.10;;
3549;SDS011;45572;48.804;8.330;2023-07-02T08:20:38;31.87;;;16.03;;
3549;SDS011;45572;48.804;8.330;2023-07-02T08:23:06;22.30;;;15.67;;
3549;SDS011;45572;48.804;8.330;2023-07-02T08:25:35;23.57;;;15.40;;
3549;SDS011;45572;48.804;8.330;2023-07-02T08:28:02;23.00;;;16.10;;
3549;SDS011;45572;48.804;8.330;2023-07-02T08:30:30;27.53;;;19.90;;
3549;SDS011;45572;48.804;8.330;2023-07-02T08:32:58;24.73;;;17.10;;
3549;SDS011;45572;48.804;8.330;2023-07-02T08:35:26;21.80;;;15.93;;
3549;SDS011;45572;48.804;8.330;2023-07-02T08:37:54;29.77;;;15.53;;
3549;SDS011;45572;48.804;8.330;2023-07-02T08:40:23;20.37;;;14.30;;
3549;SDS011;45572;48.804;8.330;2023-07-02T08:42:52;22.20;;;14.03;;
3549;SDS011;45572;48.804;8.330;2023-07-02T08:45:29;22.43;;;14.00;;
3549;SDS011;45572;48.804;8.330;2023-07-02T08:47:59;20.53;;;14.13;;
3549;SDS011;45572;48.804;8.330;2023-07-02T08:50:27;21.60;;;13.97;;
3549;SDS011;45572;48.804;8.330;2023-07-02T08:52:55;22.87;;;14.60;;
3549;SDS011;45572;48.804;8.330;2023-07-02T08:55:24;18.50;;;14.30;;
3549;SDS011;45572;48.804;8.330;2023-07-02T08:57:55;23.27;;;14.00;;
3549;SDS011;45572;48.804;8.330;2023-07-02T09:00:27;21.73;;;14.40;;
3549;SDS011;45572;48.804;8.330;2023-07-02T09:02:59;25.93;;;15.30;;
3549;SDS011;45572;48.804;8.330;2023-07-02T09:05:47;24.53;;;14.73;;
3549;SDS011;45572;48.804;8.330;2023-07-02T09:08:22;20.40;;;14.60;;
3549;SDS011;45572;48.804;8.330;2023-07-02T09:10:51;21.63;;;14.70;;
3549;SDS011;45572;48.804;8.330;2023-07-02T09:13:21;26.40;;;14.60;;
3549;SDS011;45572;48.804;8.330;2023-07-02T09:15:49;22.70;;;14.83;;
3549;SDS011;45572;48.804;8.330;2023-07-02T09:18:17;19.60;;;15.10;;
3549;SDS011;45572;48.804;8.330;2023-07-02T09:20:46;21.53;;;15.17;;
3549;SDS011;45572;48.804;8.330;2023-07-02T09:23:17;24.90;;;16.33;;
3549;SDS011;45572;48.804;8.330;2023-07-02T09:25:45;28.03;;;15.90;;
3549;SDS011;45572;48.804;8.330;2023-07-02T09:28:14;27.73;;;16.80;;
3549;SDS011;45572;48.804;8.330;2023-07-02T09:30:53;24.40;;;15.63;;
3549;SDS011;45572;48.804;8.330;2023-07-02T09:33:22;24.47;;;15.20;;
3549;SDS011;45572;48.804;8.330;2023-07-02T09:35:51;28.20;;;15.17;;
3549;SDS011;45572;48.804;8.330;2023-07-02T09:38:19;32.40;;;15.90;;
3549;SDS011;45572;48.804;8.330;2023-07-02T09:40:48;32.13;;;16.10;;
3549;SDS011;45572;48.804;8.330;2023-07-02T09:43:19;23.60;;;14.80;;
3549;SDS011;45572;48.804;8.330;2023-07-02T09:45:47;28.57;;;15.87;;
3549;SDS011;45572;48.804;8.330;2023-07-02T09:48:19;22.43;;;13.83;;
3549;SDS011;45572;48.804;8.330;2023-07-02T09:50:52;28.53;;;16.17;;
3549;SDS011;45572;48.804;8.330;2023-07-02T09:53:22;23.83;;;14.67;;
3549;SDS011;45572;48.804;8.330;2023-07-02T09:55:49;30.07;;;16.20;;
3549;SDS011;45572;48.804;8.330;2023-07-02T09:58:17;22.90;;;15.20;;
3549;SDS011;45572;48.804;8.330;2023-07-02T10:00:45;21.43;;;14.70;;
3549;SDS011;45572;48.804;8.330;2023-07-02T10:03:13;23.30;;;14.50;;
3549;SDS011;45572;48.804;8.330;2023-07-02T10:05:43;24.50;;;14.90;;
3549;SDS011;45572;48.804;8.330;2023-07-02T10:08:13;24.87;;;14.93;;
3549;SDS011;45572;48.804;8.330;2023-07-02T10:10:47;24.20;;;15.53;;
3549;SDS011;45572;48.804;8.330;2023-07-02T10:13:26;19.87;;;13.30;;
3549;SDS011;45572;48.804;8.330;2023-07-02T10:16:00;24.20;;;14.70;;
3549;SDS011;45572;48.804;8.330;2023-07-02T10:18:30;26.57;;;14.83;;
3549;SDS011;45572;48.804;8.330;2023-07-02T10:21:00;22.30;;;14.77;;
3549;SDS011;45572;48.804;8.330;2023-07-02T10:23:39;26.60;;;13.80;;
3549;SDS011;45572;48.804;8.330;2023-07-02T10:26:10;21.87;;;13.50;;
3549;SDS011;45572;48.804;8.330;2023-07-02T10:28:41;23.30;;;14.43;;
3549;SDS011;45572;48.804;8.330;2023-07-02T10:33:51;22.83;;;13.70;;
3549;SDS011;45572;48.804;8.330;2023-07-02T10:36:21;25.60;;;15.00;;
3549;SDS011;45572;48.804;8.330;2023-07-02T10:38:50;26.10;;;14.77;;
3549;SDS011;45572;48.804;8.330;2023-07-02T10:41:23;23.93;;;14.37;;
3549;SDS011;45572;48.804;8.330;2023-07-02T10:43:52;21.40;;;15.23;;
3549;SDS011;45572;48.804;8.330;2023-07-02T10:46:23;24.40;;;14.33;;
3549;SDS011;45572;48.804;8.330;2023-07-02T10:48:52;21.83;;;14.60;;
3549;SDS011;45572;48.804;8.330;2023-07-02T10:51:24;23.40;;;15.50;;
3549;SDS011;45572;48.804;8.330;2023-07-02T10:53:56;29.50;;;14.50;;
3549;SDS011;45572;48.804;8.330;2023-07-02T10:56:28;24.23;;;13.57;;
3549;SDS011;45572;48.804;8.330;2023-07-02T10:58:56;29.80;;;15.50;;
3549;SDS011;45572;48.804;8.330;2023-07-02T11:01:24;25.53;;;15.83;;
3549;SDS011;45572;48.804;8.330;2023-07-02T11:03:56;26.23;;;16.00;;
3549;SDS011;45572;48.804;8.330;2023-07-02T11:06:27;23.83;;;14.80;;
3549;SDS011;45572;48.804;8.330;2023-07-02T11:08:55;24.03;;;14.33;;
3549;SDS011;45572;48.804;8.330;2023-07-02T11:11:23;25.23;;;16.07;;
3549;SDS011;45572;48.804;8.330;2023-07-02T11:13:51;24.13;;;13.07;;
3549;SDS011;45572;48.804;8.330;2023-07-02T11:16:21;25.53;;;15.77;;
3549;SDS011;45572;48.804;8.330;2023-07-02T11:18:52;25.80;;;15.37;;
3549;SDS011;45572;48.804;8.330;2023-07-02T11:21:22;22.17;;;14.30;;
3549;SDS011;45572;48.804;8.330;2023-07-02T11:24:00;21.20;;;13.90;;
3549;SDS011;45572;48.804;8.330;2023-07-02T11:26:34;21.47;;;13.90;;
3549;SDS011;45572;48.804;8.330;2023-07-02T11:29:03;21.13;;;13.40;;
3549;SDS011;45572;48.804;8.330;2023-07-02T11:31:31;21.40;;;13.30;;
3549;SDS011;45572;48.804;8.330;2023-07-02T11:33:59;24.23;;;15.00;;
3549;SDS011;45572;48.804;8.330;2023-07-02T11:36:27;21.80;;;15.07;;
3549;SDS011;45572;48.804;8.330;2023-07-02T11:38:56;22.80;;;15.37;;
3549;SDS011;45572;48.804;8.330;2023-07-02T11:41:24;23.13;;;14.40;;
3549;SDS011;45572;48.804;8.330;2023-07-02T11:43:52;19.23;;;13.40;;
3549;SDS011;45572;48.804;8.330;2023-07-02T11:46:19;22.53;;;14.77;;
3549;SDS011;45572;48.804;8.330;2023-07-02T11:48:47;24.13;;;14.00;;
3549;SDS011;45572;48.804;8.330;2023-07-02T11:51:15;20.50;;;12.97;;
3549;SDS011;45572;48.804;8.330;2023-07-02T11:53:43;16.30;;;12.10;;
3549;SDS011;45572;48.804;8.330;2023-07-02T11:56:12;28.13;;;13.40;;
3549;SDS011;45572;48.804;8.330;2023-07-02T11:58:40;17.87;;;13.53;;
3549;SDS011;45572;48.804;8.330;2023-07-02T12:01:08;18.93;;;12.90;;
3549;SDS011;45572;48.804;8.330;2023-07-02T12:03:36;20.03;;;13.20;;
3549;SDS011;45572;48.804;8.330;2023-07-02T12:06:04;28.13;;;13.43;;
3549;SDS011;45572;48.804;8.330;2023-07-02T12:08:32;20.20;;;13.17;;
3549;SDS011;45572;48.804;8.330;2023-07-02T12:11:00;18.33;;;13.00;;
3549;SDS011;45572;48.804;8.330;2023-07-02T12:13:29;18.77;;;12.07;;
3549;SDS011;45572;48.804;8.330;2023-07-02T12:15:56;21.07;;;13.50;;
3549;SDS011;45572;48.804;8.330;2023-07-02T12:18:24;20.57;;;12.60;;
3549;SDS011;45572;48.804;8.330;2023-07-02T12:20:52;19.30;;;12.93;;
3549;SDS011;45572;48.804;8.330;2023-07-02T12:23:20;14.57;;;10.90;;
3549;SDS011;45572;48.804;8.330;2023-07-02T12:25:49;17.20;;;12.07;;
3549;SDS011;45572;48.804;8.330;2023-07-02T12:28:17;17.60;;;12.30;;
3549;SDS011;45572;48.804;8.330;2023-07-02T12:30:46;17.83;;;11.40;;
3549;SDS011;45572;48.804;8.330;2023-07-02T12:33:14;16.23;;;11.10;;
3549;SDS011;45572;48.804;8.330;2023-07-02T12:35:45;16.50;;;12.20;;
3549;SDS011;45572;48.804;8.330;2023-07-02T12:38:13;15.10;;;11.30;;
3549;SDS011;45572;48.804;8.330;2023-07-02T12:40:41;19.23;;;13.30;;
3549;SDS011;45572;48.804;8.330;2023-07-02T12:43:09;18.00;;;12.30;;
3549;SDS011;45572;48.804;8.330;2023-07-02T12:45:36;15.53;;;10.53;;
3549;SDS011;45572;48.804;8.330;2023-07-02T12:48:05;17.70;;;12.10;;
3549;SDS011;45572;48.804;8.330;2023-07-02T12:50:33;18.93;;;11.40;;
3549;SDS011;45572;48.804;8.330;2023-07-02T12:53:01;21.77;;;13.53;;
3549;SDS011;45572;48.804;8.330;2023-07-02T12:55:29;18.50;;;11.97;;
3549;SDS011;45572;48.804;8.330;2023-07-02T12:57:57;16.97;;;12.03;;
3549;SDS011;45572;48.804;8.330;2023-07-02T13:00:24;18.93;;;12.70;;
3549;SDS011;45572;48.804;8.330;2023-07-02T13:02:52;19.43;;;12.53;;
3549;SDS011;45572;48.804;8.330;2023-07-02T13:05:32;18.90;;;12.70;;
3549;SDS011;45572;48.804;8.330;2023-07-02T13:08:01;20.10;;;12.90;;
3549;SDS011;45572;48.804;8.330;2023-07-02T13:10:29;21.30;;;13.20;;
3549;SDS011;45572;48.804;8.330;2023-07-02T13:12:57;20.07;;;13.10;;
3549;SDS011;45572;48.804;8.330;2023-07-02T13:15:39;22.10;;;12.30;;
3549;SDS011;45572;48.804;8.330;2023-07-02T13:18:07;22.53;;;12.30;;
3549;SDS011;45572;48.804;8.330;2023-07-02T13:20:36;24.60;;;13.87;;
3549;SDS011;45572;48.804;8.330;2023-07-02T13:23:05;16.70;;;11.70;;
3549;SDS011;45572;48.804;8.330;2023-07-02T13:25:33;19.93;;;12.20;;
3549;SDS011;45572;48.804;8.330;2023-07-02T13:28:01;19.90;;;13.37;;
3549;SDS011;45572;48.804;8.330;2023-07-02T13:30:30;18.03;;;12.50;;
3549;SDS011;45572;48.804;8.330;2023-07-02T13:32:59;24.97;;;13.47;;
3549;SDS011;45572;48.804;8.330;2023-07-02T13:35:27;23.13;;;13.60;;
3549;SDS011;45572;48.804;8.330;2023-07-02T13:37:56;19.63;;;12.90;;
3549;SDS011;45572;48.804;8.330;2023-07-02T13:40:29;24.27;;;13.50;;
3549;SDS011;45572;48.804;8.330;2023-07-02T13:42:57;19.03;;;12.50;;
3549;SDS011;45572;48.804;8.330;2023-07-02T13:45:25;22.67;;;12.30;;
3549;SDS011;45572;48.804;8.330;2023-07-02T13:47:55;16.20;;;11.40;;
3549;SDS011;45572;48.804;8.330;2023-07-02T13:50:23;18.17;;;11.20;;
3549;SDS011;45572;48.804;8.330;2023-07-02T13:52:51;21.50;;;13.07;;
3549;SDS011;45572;48.804;8.330;2023-07-02T13:55:20;24.87;;;12.50;;
3549;SDS011;45572;48.804;8.330;2023-07-02T13:57:56;24.17;;;13.03;;
3549;SDS011;45572;48.804;8.330;2023-07-02T14:00:27;19.43;;;12.13;;
3549;SDS011;45572;48.804;8.330;2023-07-02T14:02:55;20.43;;;12.33;;
3549;SDS011;45572;48.804;8.330;2023-07-02T14:05:23;18.30;;;12.57;;
3549;SDS011;45572;48.804;8.330;2023-07-02T14:07:51;17.13;;;11.80;;
3549;SDS011;45572;48.804;8.330;2023-07-02T14:10:19;21.33;;;12.13;;
3549;SDS011;45572;48.804;8.330;2023-07-02T14:12:47;19.80;;;11.60;;
3549;SDS011;45572;48.804;8.330;2023-07-02T14:15:15;19.27;;;12.30;;
3549;SDS011;45572;48.804;8.330;2023-07-02T14:17:44;18.20;;;11.90;;
3549;SDS011;45572;48.804;8.330;2023-07-02T14:20:12;19.47;;;12.10;;
3549;SDS011;45572;48.804;8.330;2023-07-02T14:22:40;23.20;;;12.67;;
3549;SDS011;45572;48.804;8.330;2023-07-02T14:25:08;19.40;;;11.93;;
3549;SDS011;45572;48.804;8.330;2023-07-02T14:27:36;21.50;;;12.40;;
3549;SDS011;45572;48.804;8.330;2023-07-02T14:30:04;21.47;;;13.10;;
3549;SDS011;45572;48.804;8.330;2023-07-02T14:32:34;20.20;;;12.10;;
3549;SDS011;45572;48.804;8.330;2023-07-02T14:35:04;22.03;;;12.73;;
3549;SDS011;45572;48.804;8.330;2023-07-02T14:37:32;17.80;;;11.80;;
3549;SDS011;45572;48.804;8.330;2023-07-02T14:40:00;18.73;;;12.63;;
3549;SDS011;45572;48.804;8.330;2023-07-02T14:42:32;17.00;;;11.50;;
3549;SDS011;45572;48.804;8.330;2023-07-02T14:45:00;18.40;;;11.07;;
3549;SDS011;45572;48.804;8.330;2023-07-02T14:47:28;21.27;;;11.80;;
3549;SDS011;45572;48.804;8.330;2023-07-02T14:49:56;19.43;;;11.40;;
3549;SDS011;45572;48.804;8.330;2023-07-02T14:52:25;19.70;;;12.93;;
3549;SDS011;45572;48.804;8.330;2023-07-02T14:54:53;22.63;;;11.60;;
3549;SDS011;45572;48.804;8.330;2023-07-02T14:57:22;23.83;;;13.27;;
3549;SDS011;45572;48.804;8.330;2023-07-02T14:59:50;19.43;;;12.70;;